createdAt,value
2022-10-09T00:02:59.319Z,95.91
2022-10-09T00:08:31.010Z,95.43
2022-10-09T00:14:02.758Z,95.7
2022-10-09T00:19:34.469Z,96.01
2022-10-09T00:25:06.181Z,94.36
2022-10-09T00:30:42.501Z,95.06
2022-10-09T00:36:14.073Z,94.47
2022-10-09T00:41:45.898Z,94.37
2022-10-09T00:47:17.465Z,94.01
2022-10-09T00:52:49.701Z,94.4
2022-10-09T00:58:20.934Z,94.59
2022-10-09T01:03:52.762Z,94.98
2022-10-09T01:09:26.174Z,95.05
2022-10-09T01:14:56.161Z,94.81
2022-10-09T01:20:27.772Z,95.28
2022-10-09T01:25:59.684Z,95.36
2022-10-09T01:31:37.700Z,95.69
2022-10-09T01:37:09.348Z,95.02
2022-10-09T01:42:41.082Z,95.27
2022-10-09T01:48:12.805Z,94.48
2022-10-09T01:53:44.526Z,94.49
2022-10-09T01:59:16.622Z,94.02
2022-10-09T02:04:47.940Z,94.2
2022-10-09T02:10:19.913Z,94.3
2022-10-09T02:15:51.701Z,94.41
2022-10-09T02:21:23.197Z,94.98
2022-10-09T02:26:54.882Z,95.12
2022-10-09T02:32:30.993Z,95.27
2022-10-09T02:38:02.781Z,95.14
2022-10-09T02:43:34.498Z,95.63
2022-10-09T02:49:06.201Z,96.44
2022-10-09T02:54:37.910Z,96.74
2022-10-09T03:00:09.651Z,97.63
2022-10-09T03:05:41.338Z,97.38
2022-10-09T03:11:13.075Z,96.92
2022-10-09T03:16:44.771Z,96.72
2022-10-09T03:22:16.503Z,96.97
2022-10-09T03:27:48.202Z,96.21
2022-10-09T03:33:24.278Z,95.8
2022-10-09T03:38:56.056Z,95.59
2022-10-09T03:44:27.744Z,95.34
2022-10-09T03:49:59.503Z,94.94
2022-10-09T03:55:31.244Z,94.88
2022-10-09T04:01:03.130Z,94.91
2022-10-09T04:06:34.759Z,95.33
2022-10-09T04:12:06.396Z,95.47
2022-10-09T04:17:38.132Z,95.45
2022-10-09T04:23:09.876Z,95.17
2022-10-09T04:28:41.648Z,94.96
2022-10-09T04:34:17.679Z,94.64
2022-10-09T04:39:49.410Z,93.9
2022-10-09T04:45:21.150Z,94.51
2022-10-09T04:50:52.905Z,95.15
2022-10-09T04:56:24.567Z,95.64
2022-10-09T05:01:56.432Z,96.58
2022-10-09T05:07:28.069Z,97.61
2022-10-09T05:12:59.770Z,97.53
2022-10-09T05:18:31.434Z,96.02
2022-10-09T05:24:09.558Z,95.31
2022-10-09T05:29:34.918Z,95.42
2022-10-09T05:35:11.042Z,95.45
2022-10-09T05:40:42.678Z,96.01
2022-10-09T05:46:14.507Z,95.3
2022-10-09T05:51:46.171Z,94.19
2022-10-09T05:57:17.930Z,94.25
2022-10-09T06:02:50.463Z,93.96
2022-10-09T06:08:21.394Z,93.12
2022-10-09T06:13:53.077Z,93.28
2022-10-09T06:19:24.774Z,94.06
2022-10-09T06:24:56.498Z,95.43
2022-10-09T06:30:28.368Z,94.53
2022-10-09T06:36:10.681Z,96.17
2022-10-09T06:41:38.064Z,97.06
2022-10-09T06:47:09.892Z,96.25
2022-10-09T06:52:41.513Z,96.06
2022-10-09T06:58:13.236Z,95.71
2022-10-09T07:03:45.000Z,95.8
2022-10-09T07:09:16.672Z,96.09
2022-10-09T07:14:48.395Z,95.47
2022-10-09T07:20:20.171Z,95.59
2022-10-09T07:25:51.882Z,99.16
2022-10-09T07:31:23.697Z,96.79
2022-10-09T07:36:59.715Z,95.4
2022-10-09T07:42:31.389Z,93.34
2022-10-09T07:48:03.173Z,91.52
2022-10-09T07:53:36.438Z,90.16
2022-10-09T07:59:07.588Z,91.0
2022-10-09T08:04:40.174Z,89.11
2022-10-09T08:10:11.830Z,87.14
2022-10-09T08:15:43.647Z,88.12
2022-10-09T08:21:15.306Z,86.07
2022-10-09T08:26:47.889Z,87.09
2022-10-09T08:32:19.947Z,85.61
2022-10-09T08:37:56.266Z,86.1
2022-10-09T08:43:28.104Z,85.93
2022-10-09T08:48:59.797Z,83.93
2022-10-09T08:54:31.450Z,84.32
2022-10-09T09:00:03.242Z,81.97
2022-10-09T09:05:34.957Z,82.32
2022-10-09T09:11:06.651Z,81.86
2022-10-09T09:16:39.070Z,82.04
2022-10-09T09:22:10.842Z,81.3
2022-10-09T09:27:42.518Z,81.09
2022-10-09T09:33:14.353Z,79.84
2022-10-09T09:44:24.102Z,77.7
2022-10-09T09:49:55.812Z,78.71
2022-10-09T09:55:27.550Z,77.61
2022-10-09T10:00:59.679Z,75.41
2022-10-09T10:06:31.017Z,73.3
2022-10-09T10:12:02.832Z,72.87
2022-10-09T10:17:34.467Z,71.8
2022-10-09T10:23:06.181Z,72.04
2022-10-09T10:28:38.174Z,70.07
2022-10-09T10:34:09.638Z,70.37
2022-10-09T10:39:45.695Z,69.44
2022-10-09T10:45:17.451Z,69.77
2022-10-09T10:50:49.166Z,69.84
2022-10-09T10:56:20.874Z,69.16
2022-10-09T11:01:52.596Z,69.72
2022-10-09T11:07:24.609Z,69.0
2022-10-09T11:12:56.130Z,69.01
2022-10-09T11:18:27.761Z,68.01
2022-10-09T11:23:59.497Z,66.5
2022-10-09T11:29:31.238Z,66.97
2022-10-09T11:35:02.946Z,67.23
2022-10-09T11:40:40.987Z,66.0
2022-10-09T11:46:12.895Z,66.89
2022-10-09T11:51:44.523Z,65.84
2022-10-09T11:57:16.186Z,64.62
2022-10-09T12:02:48.159Z,64.7
2022-10-09T12:08:20.242Z,63.31
2022-10-09T12:13:51.363Z,64.34
2022-10-09T12:19:23.063Z,63.68
2022-10-09T12:24:55.698Z,62.53
2022-10-09T12:30:27.588Z,63.48
2022-10-09T12:35:59.177Z,63.61
2022-10-09T12:41:37.331Z,62.23
2022-10-09T12:47:09.030Z,63.76
2022-10-09T12:52:40.758Z,63.41
2022-10-09T12:58:12.478Z,63.54
2022-10-09T13:03:44.194Z,63.84
2022-10-09T13:09:15.931Z,62.89
2022-10-09T13:14:47.566Z,64.6
2022-10-09T13:20:19.426Z,62.13
2022-10-09T13:25:51.077Z,63.44
2022-10-09T13:31:22.806Z,62.72
2022-10-09T13:36:54.510Z,62.56
2022-10-09T13:42:30.569Z,62.26
2022-10-09T13:48:02.335Z,62.83
2022-10-09T13:53:34.102Z,63.05
2022-10-09T13:59:05.785Z,62.82
2022-10-09T14:04:37.878Z,64.29
2022-10-09T14:10:09.349Z,63.86
2022-10-09T14:15:40.969Z,63.53
2022-10-09T14:21:15.840Z,63.97
2022-10-09T14:26:51.439Z,65.22
2022-10-09T14:32:16.169Z,64.6
2022-10-09T14:37:48.068Z,65.22
2022-10-09T14:43:23.981Z,63.42
2022-10-09T14:48:55.664Z,65.48
2022-10-09T14:54:27.353Z,64.13
2022-10-09T14:59:59.091Z,64.15
2022-10-09T15:05:31.022Z,65.57
2022-10-09T15:11:02.870Z,65.12
2022-10-09T15:16:34.290Z,66.13
2022-10-09T15:22:06.125Z,67.1
2022-10-09T15:27:37.782Z,66.85
2022-10-09T15:33:09.486Z,67.78
2022-10-09T15:38:41.261Z,67.2
2022-10-09T15:44:19.342Z,67.83
2022-10-09T15:49:53.772Z,68.65
2022-10-09T15:55:22.789Z,68.41
2022-10-09T16:00:54.486Z,69.96
2022-10-09T16:06:26.390Z,70.13
2022-10-09T16:11:57.950Z,71.35
2022-10-09T16:17:29.715Z,72.69
2022-10-09T16:23:01.572Z,74.34
2022-10-09T16:28:33.193Z,75.39
2022-10-09T16:34:05.094Z,76.56
2022-10-09T16:39:36.537Z,77.57
2022-10-09T16:45:14.681Z,77.98
2022-10-09T16:50:46.414Z,78.35
2022-10-09T16:56:18.334Z,78.21
2022-10-09T17:01:49.865Z,79.19
2022-10-09T17:07:21.666Z,79.19
2022-10-09T17:12:53.906Z,79.74
2022-10-09T17:18:25.626Z,79.96
2022-10-09T17:23:57.281Z,80.68
2022-10-09T17:29:29.099Z,81.07
2022-10-09T17:35:00.746Z,80.98
2022-10-09T17:40:32.510Z,81.48
2022-10-09T17:46:08.554Z,81.45
2022-10-09T17:51:40.346Z,81.48
2022-10-09T17:57:12.075Z,81.73
2022-10-09T18:02:43.770Z,82.29
2022-10-09T18:08:15.496Z,82.84
2022-10-09T18:13:47.329Z,82.4
2022-10-09T18:19:18.972Z,83.05
2022-10-09T18:24:50.665Z,83.36
2022-10-09T18:30:22.481Z,84.25
2022-10-09T18:35:54.100Z,84.17
2022-10-09T18:41:25.831Z,83.87
2022-10-09T18:47:03.987Z,84.41
2022-10-09T18:52:35.633Z,84.18
2022-10-09T18:58:07.372Z,85.06
2022-10-09T19:03:39.056Z,84.86
2022-10-09T19:09:10.829Z,85.41
2022-10-09T19:14:42.627Z,85.55
2022-10-09T19:20:14.356Z,85.62
2022-10-09T19:25:46.035Z,85.63
2022-10-09T19:31:17.842Z,85.92
2022-10-09T19:36:49.613Z,85.92
2022-10-09T19:42:21.215Z,85.75
2022-10-09T19:47:57.743Z,86.51
2022-10-09T19:53:29.064Z,86.94
2022-10-09T19:59:00.755Z,86.72
2022-10-09T20:04:32.460Z,87.36
2022-10-09T20:10:04.286Z,87.5
2022-10-09T20:15:35.955Z,87.18
2022-10-09T20:21:07.763Z,87.48
2022-10-09T20:26:43.488Z,88.79
2022-10-09T20:32:11.146Z,87.69
2022-10-09T20:37:42.860Z,86.89
2022-10-09T20:43:14.578Z,87.47
2022-10-09T20:48:52.687Z,86.81
2022-10-09T20:54:24.483Z,87.39
2022-10-09T20:59:56.102Z,87.01
2022-10-09T21:05:27.863Z,87.94
2022-10-09T21:10:59.602Z,88.37
2022-10-09T21:16:31.290Z,88.31
2022-10-09T21:22:03.245Z,88.32
2022-10-09T21:27:34.746Z,88.71
2022-10-09T21:33:06.469Z,88.66
2022-10-09T21:38:38.184Z,88.65
2022-10-09T21:44:09.903Z,89.11
2022-10-09T21:49:46.051Z,88.93
2022-10-09T21:55:17.894Z,89.58
2022-10-09T22:00:49.490Z,89.54
2022-10-09T22:06:21.164Z,89.92
2022-10-09T22:11:52.891Z,89.8
2022-10-09T22:17:24.601Z,89.76
2022-10-09T22:22:56.363Z,89.77
2022-10-09T22:28:28.202Z,89.39
2022-10-09T22:33:59.825Z,90.18
2022-10-09T22:39:31.553Z,90.96
2022-10-09T22:45:03.278Z,91.55
2022-10-09T22:50:39.458Z,91.07
2022-10-09T22:56:11.102Z,90.54
2022-10-09T23:01:42.905Z,90.43
2022-10-09T23:07:14.597Z,90.63
2022-10-09T23:12:46.449Z,90.64
2022-10-09T23:18:18.021Z,90.41
2022-10-09T23:23:49.733Z,90.95
2022-10-09T23:29:21.457Z,90.44
2022-10-09T23:34:53.198Z,90.91
2022-10-09T23:40:24.909Z,91.18
2022-10-09T23:45:56.649Z,90.82
2022-10-09T23:51:32.882Z,90.78
2022-10-09T23:57:04.517Z,91.0
